Time;durP1;ratioP1;P1;durP2;ratioP2;P2;SDS_P1;SDS_P2;PMS_P1;PMS_P2;Temp;Humidity;BMP_temperature;BMP_pressure;BME280_temperature;BME280_humidity;BME280_pressure;Samples;Min_cycle;Max_cycle;Signal;HPM_P1;HPM_P2
2024/04/01 00:02:04;;;;;;;34.25;30.75;;;10.30;99.90;;;;;;5008593;28;20112;-79
2024/04/01 00:04:29;;;;;;;35.33;31.85;;;10.30;99.90;;;;;;4958864;28;20558;-80
2024/04/01 00:06:55;;;;;;;33.22;30.20;;;10.40;99.90;;;;;;4973847;28;20046;-79
2024/04/01 00:09:21;;;;;;;34.20;30.73;;;10.40;99.90;;;;;;4970430;28;20052;-79
2024/04/01 00:11:47;;;;;;;31.33;28.20;;;10.40;99.90;;;;;;4974380;28;20104;-79
2024/04/01 00:14:13;;;;;;;31.45;28.17;;;10.40;99.90;;;;;;4966682;28;20483;-79
2024/04/01 00:16:38;;;;;;;29.02;25.95;;;10.40;99.90;;;;;;4962296;28;20053;-80
2024/04/01 00:19:07;;;;;;;27.58;24.98;;;10.40;99.90;;;;;;4983980;28;20602;-80
2024/04/01 00:21:34;;;;;;;25.73;23.13;;;10.40;99.90;;;;;;4972158;28;20099;-80
2024/04/01 00:24:00;;;;;;;25.92;22.95;;;10.40;99.90;;;;;;4979181;28;20598;-79
2024/04/01 00:26:25;;;;;;;24.33;21.80;;;10.40;99.90;;;;;;4958768;28;20084;-80
2024/04/01 00:28:51;;;;;;;26.95;24.10;;;10.40;99.90;;;;;;4974287;28;20038;-79
2024/04/01 00:31:17;;;;;;;22.23;19.95;;;10.40;99.90;;;;;;4958681;28;20584;-79
2024/04/01 00:33:42;;;;;;;22.88;20.63;;;10.50;99.90;;;;;;4989559;28;20054;-80
2024/04/01 00:36:08;;;;;;;21.40;19.40;;;10.50;99.90;;;;;;4980032;28;20502;-80
2024/04/01 00:38:34;;;;;;;20.95;18.92;;;10.50;99.90;;;;;;4988356;28;20126;-79
2024/04/01 00:41:00;;;;;;;20.23;17.98;;;10.50;99.90;;;;;;4977556;28;20451;-79
2024/04/01 00:43:27;;;;;;;19.20;17.38;;;10.50;99.90;;;;;;4989735;28;20109;-80
2024/04/01 00:45:53;;;;;;;19.13;17.10;;;10.50;99.90;;;;;;4994265;28;20072;-78
2024/04/01 00:48:19;;;;;;;19.08;17.23;;;10.50;99.90;;;;;;4954297;28;20049;-80
2024/04/01 00:50:50;;;;;;;20.05;17.17;;;10.60;99.90;;;;;;4994551;28;20038;-80
2024/04/01 00:53:17;;;;;;;17.75;15.90;;;10.60;99.90;;;;;;4956463;28;20126;-80
2024/04/01 00:55:44;;;;;;;16.30;14.60;;;10.50;99.90;;;;;;4968405;28;20042;-80
2024/04/01 00:58:11;;;;;;;16.50;14.80;;;10.50;99.90;;;;;;4979423;28;20145;-80
2024/04/01 01:00:37;;;;;;;18.88;15.75;;;10.50;99.90;;;;;;4965049;28;20038;-79
2024/04/01 01:03:04;;;;;;;16.23;14.23;;;10.50;99.90;;;;;;4984266;28;20525;-79
2024/04/01 01:05:32;;;;;;;18.13;14.23;;;10.50;99.90;;;;;;5013009;28;20046;-79
2024/04/01 01:07:58;;;;;;;15.88;13.65;;;10.50;99.90;;;;;;4958317;28;20095;-79
2024/04/01 01:10:24;;;;;;;15.98;13.57;;;10.40;99.90;;;;;;4981530;28;20663;-79
2024/04/01 01:12:51;;;;;;;16.58;14.68;;;10.40;99.90;;;;;;4986312;28;20070;-80
2024/04/01 01:15:17;;;;;;;15.52;13.93;;;10.30;99.90;;;;;;4962413;28;20647;-79
2024/04/01 01:17:45;;;;;;;14.77;13.18;;;10.30;99.90;;;;;;4967894;28;20046;-79
2024/04/01 01:20:14;;;;;;;19.58;17.50;;;10.20;99.90;;;;;;4975687;28;20615;-79
2024/04/01 01:22:43;;;;;;;17.73;13.10;;;10.20;99.90;;;;;;4960128;28;20095;-79
2024/04/01 01:25:09;;;;;;;16.25;13.35;;;10.20;99.90;;;;;;4960746;28;20084;-80
2024/04/01 01:27:44;;;;;;;15.88;12.45;;;10.20;99.90;;;;;;4986080;28;20057;-79
2024/04/01 01:30:16;;;;;;;16.80;13.93;;;10.10;99.90;;;;;;4967283;28;20645;-80
2024/04/01 01:32:47;;;;;;;14.88;13.27;;;10.10;99.90;;;;;;4963004;28;20072;-79
2024/04/01 01:35:26;;;;;;;14.77;13.23;;;10.00;99.90;;;;;;5021858;28;20053;-79
2024/04/01 01:37:53;;;;;;;14.70;13.27;;;10.00;99.90;;;;;;4972311;28;20136;-80
2024/04/01 01:40:19;;;;;;;15.57;13.48;;;10.00;99.90;;;;;;4969998;28;20052;-80
2024/04/01 01:42:45;;;;;;;17.38;13.98;;;9.90;99.90;;;;;;4984406;28;20321;-80
2024/04/01 01:45:12;;;;;;;15.82;14.15;;;9.90;99.90;;;;;;5019949;28;20096;-79
2024/04/01 01:47:41;;;;;;;15.98;14.05;;;9.80;99.90;;;;;;4970122;28;20121;-79
2024/04/01 01:50:08;;;;;;;15.27;13.15;;;9.70;99.90;;;;;;4988413;28;20050;-79
2024/04/01 01:52:34;;;;;;;14.43;12.88;;;9.70;99.90;;;;;;4988559;28;20041;-79
2024/04/01 01:55:00;;;;;;;14.02;12.55;;;9.60;99.90;;;;;;4976161;28;20046;-80
2024/04/01 01:57:28;;;;;;;15.90;14.10;;;9.60;99.90;;;;;;4971859;28;20042;-80
2024/04/01 01:59:54;;;;;;;17.30;15.45;;;9.60;99.90;;;;;;4974953;28;20042;-79
2024/04/01 02:02:20;;;;;;;15.68;14.07;;;9.60;99.90;;;;;;4983797;28;20042;-79
2024/04/01 02:04:45;;;;;;;16.23;13.95;;;9.60;99.90;;;;;;5015161;28;20104;-80
2024/04/01 02:07:11;;;;;;;15.50;13.90;;;9.50;99.90;;;;;;4976140;28;20046;-79
2024/04/01 02:09:37;;;;;;;17.85;15.93;;;9.50;99.90;;;;;;4973947;28;20471;-79
2024/04/01 02:12:12;;;;;;;14.73;13.23;;;9.60;99.90;;;;;;4966960;28;20038;-79
2024/04/01 02:14:41;;;;;;;16.92;15.30;;;9.50;99.90;;;;;;4970258;28;20049;-79
2024/04/01 02:17:07;;;;;;;18.13;15.68;;;9.50;99.90;;;;;;4984506;28;20042;-80
2024/04/01 02:19:37;;;;;;;17.80;16.05;;;9.60;99.90;;;;;;5013905;28;20145;-79
2024/04/01 02:22:03;;;;;;;16.83;15.23;;;9.50;99.90;;;;;;4970312;28;20057;-80
2024/04/01 02:24:29;;;;;;;23.15;17.52;;;9.50;99.90;;;;;;5019311;28;20052;-79
2024/04/01 02:26:55;;;;;;;18.88;17.02;;;9.50;99.90;;;;;;4975653;28;20458;-79
2024/04/01 02:29:22;;;;;;;21.60;17.02;;;9.40;99.90;;;;;;4971389;28;20133;-80
2024/04/01 02:31:50;;;;;;;18.77;16.98;;;9.40;99.90;;;;;;4967080;28;20045;-80
2024/04/01 02:34:16;;;;;;;17.88;16.15;;;9.30;99.90;;;;;;4969747;28;20050;-79
2024/04/01 02:36:42;;;;;;;17.13;15.30;;;9.40;99.90;;;;;;4995671;28;20046;-80
2024/04/01 02:39:16;;;;;;;20.55;17.83;;;9.40;99.90;;;;;;4957243;28;20074;-79
2024/04/01 02:41:46;;;;;;;20.75;18.60;;;9.40;99.90;;;;;;4971204;28;20077;-80
2024/04/01 02:44:12;;;;;;;21.38;18.33;;;9.40;99.90;;;;;;4961503;28;20086;-80
2024/04/01 02:46:42;;;;;;;18.65;16.65;;;9.30;99.90;;;;;;4983867;28;20057;-80
2024/04/01 02:49:11;;;;;;;19.40;17.25;;;9.20;99.90;;;;;;4989966;28;20034;-80
2024/04/01 02:51:38;;;;;;;19.52;17.55;;;9.20;99.90;;;;;;5006919;28;20046;-80
2024/04/01 02:54:05;;;;;;;18.52;16.67;;;9.30;99.90;;;;;;4987911;28;20055;-79
2024/04/01 02:56:31;;;;;;;20.55;18.27;;;9.30;99.90;;;;;;4957514;28;20053;-79
2024/04/01 02:59:01;;;;;;;21.70;19.23;;;9.30;99.90;;;;;;4967565;28;20046;-80
2024/04/01 03:01:27;;;;;;;21.65;19.45;;;9.20;99.90;;;;;;4993854;28;20054;-79
2024/04/01 03:03:59;;;;;;;21.85;19.75;;;9.20;99.90;;;;;;4967455;28;20046;-80
2024/04/01 03:06:26;;;;;;;21.40;19.20;;;9.20;99.90;;;;;;4972659;28;20308;-81
2024/04/01 03:08:56;;;;;;;23.65;21.23;;;9.20;99.90;;;;;;5015102;28;20049;-81
2024/04/01 03:11:22;;;;;;;22.75;20.52;;;9.20;99.90;;;;;;4976606;28;20050;-81
2024/04/01 03:13:48;;;;;;;22.45;20.20;;;9.20;99.90;;;;;;4972692;28;20038;-80
2024/04/01 03:16:15;;;;;;;24.35;21.73;;;9.20;99.90;;;;;;4979106;28;20537;-81
2024/04/01 03:18:40;;;;;;;23.55;21.35;;;9.20;99.90;;;;;;4964655;28;20046;-81
2024/04/01 03:21:08;;;;;;;23.15;20.77;;;9.20;99.90;;;;;;4994286;28;20446;-80
2024/04/01 03:23:33;;;;;;;23.75;21.38;;;9.10;99.90;;;;;;4972123;28;20129;-81
2024/04/01 03:26:00;;;;;;;22.80;20.55;;;9.20;99.90;;;;;;4982650;28;21585;-81
2024/04/01 03:28:26;;;;;;;25.00;22.38;;;9.20;99.90;;;;;;5013615;28;20062;-81
2024/04/01 03:30:52;;;;;;;27.15;24.13;;;9.20;99.90;;;;;;4981399;28;20478;-81
2024/04/01 03:33:18;;;;;;;23.30;21.00;;;9.20;99.90;;;;;;4967238;28;20494;-81
2024/04/01 03:35:43;;;;;;;26.20;23.60;;;9.20;99.90;;;;;;4966046;28;20046;-80
2024/04/01 03:38:09;;;;;;;30.77;27.88;;;9.10;99.90;;;;;;5000649;28;20038;-81
2024/04/01 03:40:39;;;;;;;28.13;25.52;;;9.20;99.90;;;;;;4977775;28;20538;-81
2024/04/01 03:43:06;;;;;;;27.60;25.08;;;9.20;99.90;;;;;;4962535;28;20038;-80
2024/04/01 03:45:33;;;;;;;28.88;26.05;;;9.20;99.90;;;;;;5003207;28;20050;-81
2024/04/01 03:47:59;;;;;;;36.03;32.72;;;9.20;99.90;;;;;;4984432;28;20049;-81
2024/04/01 03:50:24;;;;;;;33.95;30.65;;;9.20;99.90;;;;;;4977780;28;20049;-81
2024/04/01 03:52:51;;;;;;;26.08;23.58;;;9.30;99.90;;;;;;4983787;28;20046;-81
2024/04/01 03:55:17;;;;;;;26.23;23.80;;;9.30;99.90;;;;;;4984404;28;20050;-81
2024/04/01 03:57:43;;;;;;;30.70;27.80;;;9.20;99.90;;;;;;5007285;28;20038;-81
2024/04/01 04:00:09;;;;;;;32.63;29.40;;;9.20;99.90;;;;;;4990561;28;20042;-82
2024/04/01 04:02:35;;;;;;;37.03;33.45;;;9.20;99.90;;;;;;4976236;28;20099;-81
2024/04/01 04:05:01;;;;;;;29.60;26.88;;;9.20;99.90;;;;;;5013578;28;20503;-81
2024/04/01 04:07:29;;;;;;;34.92;31.40;;;9.20;99.90;;;;;;4982471;28;20048;-81
2024/04/01 04:09:55;;;;;;;28.00;25.23;;;9.20;99.90;;;;;;4966004;28;20663;-81
2024/04/01 04:12:21;;;;;;;26.15;23.67;;;9.20;99.90;;;;;;4983342;28;20061;-81
2024/04/01 04:14:47;;;;;;;27.83;25.15;;;9.20;99.90;;;;;;4987727;28;20073;-81
2024/04/01 04:17:12;;;;;;;28.67;25.98;;;9.10;99.90;;;;;;4973167;28;20049;-81
2024/04/01 04:19:38;;;;;;;29.70;26.90;;;9.10;99.90;;;;;;5016423;28;20042;-81
2024/04/01 04:22:04;;;;;;;28.85;26.17;;;9.10;99.90;;;;;;4981696;28;20034;-81
2024/04/01 04:24:30;;;;;;;28.88;25.85;;;9.10;99.90;;;;;;4968008;28;20065;-81
2024/04/01 04:26:58;;;;;;;27.58;25.08;;;9.00;99.90;;;;;;4983098;28;20129;-81
2024/04/01 04:29:24;;;;;;;28.38;25.48;;;9.00;99.90;;;;;;5010076;28;20088;-81
2024/04/01 04:31:54;;;;;;;30.30;27.30;;;8.90;99.90;;;;;;4971877;28;20046;-80
2024/04/01 04:34:23;;;;;;;29.75;26.95;;;8.90;99.90;;;;;;4954558;28;20054;-82
2024/04/01 04:36:50;;;;;;;29.17;26.55;;;8.90;99.90;;;;;;4977590;28;20047;-81
2024/04/01 04:39:25;;;;;;;27.00;24.42;;;8.80;99.90;;;;;;5001842;28;20491;-81
2024/04/01 04:41:54;;;;;;;27.23;24.45;;;8.80;99.90;;;;;;4964188;28;20045;-81
2024/04/01 04:44:20;;;;;;;31.40;28.33;;;8.80;99.90;;;;;;5000010;28;20046;-81
2024/04/01 04:46:46;;;;;;;27.23;24.83;;;8.80;99.90;;;;;;4991126;28;20054;-82
2024/04/01 04:49:12;;;;;;;26.63;24.27;;;8.80;99.90;;;;;;4980391;28;20062;-82
2024/04/01 04:51:38;;;;;;;26.83;24.23;;;8.80;99.90;;;;;;5013873;28;20503;-82
2024/04/01 04:54:04;;;;;;;30.20;27.45;;;8.80;99.90;;;;;;4970612;28;20042;-82
2024/04/01 04:56:31;;;;;;;26.20;23.83;;;8.70;99.90;;;;;;4985401;28;20050;-82
2024/04/01 04:58:57;;;;;;;29.75;27.10;;;8.70;99.90;;;;;;5012763;28;20057;-81
2024/04/01 05:01:23;;;;;;;30.77;28.15;;;8.70;99.90;;;;;;5012426;28;20074;-81
2024/04/01 05:03:49;;;;;;;30.17;27.02;;;8.70;99.90;;;;;;4980322;28;20038;-82
2024/04/01 05:06:15;;;;;;;34.22;30.75;;;8.60;99.90;;;;;;5007544;28;20049;-82
2024/04/01 05:08:41;;;;;;;53.63;32.17;;;8.50;99.90;;;;;;5002354;28;20141;-82
2024/04/01 05:11:09;;;;;;;29.17;26.77;;;8.40;99.90;;;;;;4974772;28;20125;-82
2024/04/01 05:13:35;;;;;;;30.20;27.70;;;8.30;99.90;;;;;;4958850;28;20625;-82
2024/04/01 05:16:03;;;;;;;31.73;28.58;;;8.30;99.90;;;;;;4987098;28;20041;-82
2024/04/01 05:18:29;;;;;;;49.63;31.05;;;8.30;99.90;;;;;;4967869;28;20136;-82
2024/04/01 05:20:55;;;;;;;34.13;31.30;;;8.30;99.90;;;;;;4992332;28;20563;-82
2024/04/01 05:23:22;;;;;;;39.13;35.75;;;8.20;99.90;;;;;;4967492;28;20057;-81
2024/04/01 05:25:47;;;;;;;37.50;34.20;;;8.20;99.90;;;;;;4984755;28;20128;-82
2024/04/01 05:28:13;;;;;;;35.47;32.03;;;8.10;99.90;;;;;;4970491;28;20129;-82
2024/04/01 05:30:39;;;;;;;31.00;28.17;;;8.20;99.90;;;;;;5000885;28;20034;-82
2024/04/01 05:33:05;;;;;;;38.35;34.65;;;8.20;99.90;;;;;;4992108;28;20104;-83
2024/04/01 05:35:33;;;;;;;42.25;38.10;;;8.20;99.90;;;;;;4965446;28;20042;-82
2024/04/01 05:38:03;;;;;;;43.17;39.28;;;8.30;99.90;;;;;;4960014;28;20034;-82
2024/04/01 05:40:29;;;;;;;41.40;37.63;;;8.30;99.90;;;;;;4979671;28;20061;-82
2024/04/01 05:42:54;;;;;;;41.08;37.47;;;8.40;99.90;;;;;;4965549;28;20042;-82
2024/04/01 05:45:20;;;;;;;43.75;39.67;;;8.40;99.90;;;;;;4989207;28;20041;-82
2024/04/01 05:47:48;;;;;;;40.95;37.28;;;8.50;99.90;;;;;;4973030;28;20034;-82
2024/04/01 05:50:18;;;;;;;40.42;36.92;;;8.50;99.90;;;;;;4982511;28;20048;-82
2024/04/01 05:52:44;;;;;;;41.22;37.45;;;8.50;99.90;;;;;;4960997;28;20499;-83
2024/04/01 05:55:11;;;;;;;36.05;32.70;;;8.60;99.90;;;;;;4963872;28;20065;-83
2024/04/01 05:57:37;;;;;;;37.00;33.67;;;8.60;99.90;;;;;;4970011;28;20049;-83
2024/04/01 06:00:04;;;;;;;36.97;33.63;;;8.60;99.90;;;;;;4970135;28;20057;-83
2024/04/01 06:02:35;;;;;;;41.05;37.22;;;8.70;99.90;;;;;;4975967;28;20050;-83
2024/04/01 06:05:01;;;;;;;39.30;35.47;;;8.70;99.90;;;;;;5010012;28;20118;-83
2024/04/01 06:07:27;;;;;;;35.28;31.98;;;8.60;99.90;;;;;;4978023;28;20085;-83
2024/04/01 06:09:58;;;;;;;51.65;46.92;;;8.70;99.90;;;;;;5017819;28;20045;-83
2024/04/01 06:12:24;;;;;;;40.72;37.03;;;8.80;99.90;;;;;;4970512;28;20042;-83
2024/04/01 06:14:53;;;;;;;40.78;37.17;;;8.80;99.90;;;;;;4967582;28;20066;-83
2024/04/01 06:17:19;;;;;;;39.15;35.58;;;8.80;99.90;;;;;;4977126;28;20057;-83
2024/04/01 06:19:45;;;;;;;39.30;35.50;;;8.90;99.90;;;;;;4978654;28;20121;-83
2024/04/01 06:22:11;;;;;;;39.38;35.78;;;8.90;99.90;;;;;;4967399;28;20398;-83
2024/04/01 06:24:38;;;;;;;41.25;37.75;;;8.90;99.90;;;;;;5000110;28;20586;-83
2024/04/01 06:27:05;;;;;;;40.33;36.63;;;8.90;99.90;;;;;;4965650;28;20764;-84
2024/04/01 06:29:31;;;;;;;37.40;33.92;;;8.90;99.90;;;;;;4993389;28;20097;-84
2024/04/01 06:31:56;;;;;;;34.08;31.08;;;8.90;99.90;;;;;;4988624;28;20041;-83
2024/04/01 06:34:22;;;;;;;38.28;35.03;;;8.90;99.90;;;;;;4965056;28;20077;-84
2024/04/01 06:36:51;;;;;;;38.65;35.13;;;8.90;99.90;;;;;;4985349;28;20517;-83
2024/04/01 06:39:17;;;;;;;40.75;36.97;;;9.00;99.90;;;;;;4970339;28;20065;-83
2024/04/01 06:41:44;;;;;;;43.42;39.72;;;9.00;99.90;;;;;;4989827;28;20054;-84
2024/04/01 06:44:10;;;;;;;40.80;37.08;;;9.10;99.90;;;;;;5019912;28;20046;-83
2024/04/01 06:46:37;;;;;;;42.88;39.05;;;9.10;99.90;;;;;;4970266;28;20046;-83
2024/04/01 06:49:03;;;;;;;44.72;40.58;;;9.10;99.90;;;;;;4963667;28;20495;-82
2024/04/01 06:51:30;;;;;;;45.05;41.22;;;9.20;99.90;;;;;;5013489;28;20050;-82
2024/04/01 06:53:55;;;;;;;42.00;38.40;;;9.20;99.90;;;;;;4974919;28;20387;-83
2024/04/01 06:56:21;;;;;;;43.92;39.83;;;9.30;99.90;;;;;;4977854;28;20053;-83
2024/04/01 06:58:47;;;;;;;43.38;39.53;;;9.30;99.90;;;;;;4973984;28;20042;-83
2024/04/01 07:01:13;;;;;;;42.53;38.60;;;9.40;99.90;;;;;;4975377;28;20073;-83
2024/04/01 07:03:38;;;;;;;43.97;39.78;;;9.40;99.90;;;;;;4999097;28;20042;-82
2024/04/01 07:06:04;;;;;;;45.28;41.47;;;9.50;99.90;;;;;;4969512;28;20038;-82
2024/04/01 07:08:30;;;;;;;41.70;37.65;;;9.50;99.90;;;;;;4992913;28;20046;-83
2024/04/01 07:10:56;;;;;;;42.55;38.83;;;9.50;99.90;;;;;;4967403;28;20058;-83
2024/04/01 07:13:22;;;;;;;41.78;38.33;;;9.60;99.90;;;;;;4973574;28;20553;-83
2024/04/01 07:15:47;;;;;;;40.85;37.17;;;9.70;99.90;;;;;;4983045;28;20057;-82
2024/04/01 07:18:13;;;;;;;43.55;39.42;;;9.70;99.90;;;;;;4970466;28;20052;-83
2024/04/01 07:20:39;;;;;;;42.33;38.63;;;9.80;99.90;;;;;;4980451;28;20054;-83
2024/04/01 07:23:05;;;;;;;41.53;37.78;;;9.80;99.90;;;;;;4988451;28;20376;-83
2024/04/01 07:25:31;;;;;;;39.95;36.45;;;9.90;99.90;;;;;;4971076;28;20046;-83
2024/04/01 07:27:56;;;;;;;40.40;36.70;;;9.90;99.90;;;;;;4972222;28;20526;-83
2024/04/01 07:30:24;;;;;;;40.53;37.00;;;10.00;99.90;;;;;;4970987;28;20045;-83
2024/04/01 07:32:50;;;;;;;40.20;36.47;;;10.00;99.90;;;;;;5014618;28;20204;-83
2024/04/01 07:35:16;;;;;;;33.53;30.52;;;10.10;99.90;;;;;;4985663;28;20133;-81
2024/04/01 07:37:41;;;;;;;38.88;35.42;;;10.10;99.90;;;;;;4973995;28;20061;-83
2024/04/01 07:40:08;;;;;;;40.65;37.17;;;10.10;99.90;;;;;;4972473;28;20483;-83
2024/04/01 07:42:34;;;;;;;44.10;40.22;;;10.10;99.90;;;;;;4980902;28;20046;-83
2024/04/01 07:45:00;;;;;;;41.80;37.97;;;10.20;99.90;;;;;;4974513;28;20038;-83
2024/04/01 07:47:26;;;;;;;36.95;33.63;;;10.20;99.90;;;;;;4973153;28;20046;-84
2024/04/01 07:49:51;;;;;;;34.42;31.35;;;10.20;99.90;;;;;;4982561;28;20034;-83
2024/04/01 07:52:17;;;;;;;38.05;34.45;;;10.20;99.90;;;;;;4988916;28;20080;-83
2024/04/01 07:54:43;;;;;;;38.85;35.05;;;10.20;99.90;;;;;;4984552;28;20141;-83
2024/04/01 07:57:10;;;;;;;37.63;34.42;;;10.20;99.90;;;;;;4967154;28;20038;-83
2024/04/01 07:59:36;;;;;;;44.63;40.72;;;10.10;99.90;;;;;;4985844;28;20619;-83
2024/04/01 08:02:03;;;;;;;36.60;33.13;;;10.20;99.90;;;;;;4981447;28;20077;-82
2024/04/01 08:04:29;;;;;;;39.55;36.20;;;10.20;99.90;;;;;;4971948;28;20081;-83
2024/04/01 08:06:55;;;;;;;41.70;37.88;;;10.30;99.90;;;;;;5015148;28;20050;-83
2024/04/01 08:09:22;;;;;;;37.65;34.35;;;10.20;99.90;;;;;;4972598;28;20046;-83
2024/04/01 08:11:48;;;;;;;47.58;43.30;;;10.20;99.90;;;;;;4985666;28;20038;-83
2024/04/01 08:14:15;;;;;;;36.28;33.03;;;10.30;99.90;;;;;;4969676;28;20038;-83
2024/04/01 08:16:42;;;;;;;42.75;39.05;;;10.30;99.90;;;;;;4967093;28;20056;-82
2024/04/01 08:19:11;;;;;;;37.90;34.30;;;10.30;99.90;;;;;;5016833;28;20034;-82
2024/04/01 08:21:40;;;;;;;34.80;31.80;;;10.30;99.90;;;;;;4981841;28;20126;-83
2024/04/01 08:24:06;;;;;;;40.17;36.47;;;10.40;99.90;;;;;;4972169;28;20037;-83
2024/04/01 08:26:33;;;;;;;41.67;37.80;;;10.40;99.90;;;;;;4971906;28;20042;-83
2024/04/01 08:28:59;;;;;;;34.47;31.23;;;10.40;99.90;;;;;;4968783;28;20038;-82
2024/04/01 08:31:25;;;;;;;36.25;32.97;;;10.40;99.90;;;;;;4968082;28;20053;-82
2024/04/01 08:33:50;;;;;;;36.50;33.10;;;10.50;99.90;;;;;;4982443;28;20065;-82
2024/04/01 08:36:19;;;;;;;37.40;33.95;;;10.40;99.90;;;;;;4966647;28;20453;-82
2024/04/01 08:38:45;;;;;;;36.47;33.22;;;10.50;99.90;;;;;;4972976;28;20053;-82
2024/04/01 08:41:26;;;;;;;38.13;34.67;;;10.50;99.90;;;;;;4969582;28;20399;-82
2024/04/01 08:43:58;;;;;;;42.97;39.17;;;10.50;99.90;;;;;;4971519;28;20049;-83
2024/04/01 08:46:30;;;;;;;37.70;34.47;;;10.50;99.90;;;;;;4968198;28;20047;-82
2024/04/01 08:49:00;;;;;;;42.75;39.10;;;10.60;99.90;;;;;;4971348;28;20715;-83
2024/04/01 08:51:27;;;;;;;42.88;39.22;;;10.60;99.90;;;;;;4966001;28;20042;-82
2024/04/01 08:54:01;;;;;;;41.63;38.03;;;10.60;99.90;;;;;;4968761;28;20041;-83
2024/04/01 08:56:28;;;;;;;37.75;34.45;;;10.70;99.90;;;;;;4983958;28;20041;-83
2024/04/01 08:58:56;;;;;;;37.67;34.22;;;10.70;99.90;;;;;;4965992;28;21316;-83
2024/04/01 09:01:27;;;;;;;;;;;10.80;99.90;;;;;;4969396;28;20123;-83
2024/04/01 09:03:54;;;;;;;36.60;33.35;;;10.80;99.90;;;;;;5014795;28;19921;-83
2024/04/01 09:06:20;;;;;;;34.08;31.17;;;10.80;99.90;;;;;;4971517;28;20046;-83
2024/04/01 09:08:48;;;;;;;37.42;33.90;;;10.80;99.90;;;;;;4980906;28;20430;-82
2024/04/01 09:11:14;;;;;;;39.00;35.35;;;10.80;99.90;;;;;;5020738;28;20184;-82
2024/04/01 09:13:40;;;;;;;38.53;35.33;;;10.80;99.90;;;;;;4969003;28;20747;-83
2024/04/01 09:16:07;;;;;;;40.95;37.35;;;10.80;99.90;;;;;;4970682;28;20045;-82
2024/04/01 09:18:37;;;;;;;41.45;37.85;;;10.90;99.90;;;;;;4971367;28;20498;-82
2024/04/01 09:21:06;;;;;;;41.03;37.10;;;10.90;99.90;;;;;;4968705;28;20411;-82
2024/04/01 09:23:32;;;;;;;37.78;34.38;;;10.90;99.90;;;;;;4995326;28;20097;-82
2024/04/01 09:25:59;;;;;;;40.05;36.55;;;10.90;99.90;;;;;;4985752;28;20077;-82
2024/04/01 09:28:25;;;;;;;35.50;32.47;;;10.90;99.90;;;;;;4986724;28;20050;-82
2024/04/01 09:30:51;;;;;;;35.22;32.13;;;10.90;99.90;;;;;;4981505;28;20495;-82
2024/04/01 09:33:17;;;;;;;30.98;28.20;;;10.90;99.90;;;;;;5019211;28;20129;-82
2024/04/01 09:35:43;;;;;;;40.83;36.78;;;10.90;99.90;;;;;;4988830;28;20124;-82
2024/04/01 09:38:09;;;;;;;36.90;33.63;;;10.90;99.90;;;;;;4974027;28;20049;-81
2024/04/01 09:40:35;;;;;;;36.58;33.30;;;10.90;99.90;;;;;;4969728;28;20034;-82
2024/04/01 09:43:01;;;;;;;33.92;31.00;;;10.90;99.90;;;;;;4977604;28;20582;-81
2024/04/01 09:45:28;;;;;;;32.45;29.52;;;10.90;99.90;;;;;;4997644;28;20049;-81
2024/04/01 09:47:54;;;;;;;35.63;32.63;;;10.90;99.90;;;;;;5015168;28;20035;-82
2024/04/01 09:50:25;;;;;;;32.45;29.60;;;11.00;99.90;;;;;;5005071;28;20046;-81
2024/04/01 09:52:50;;;;;;;32.45;29.35;;;11.00;99.90;;;;;;5009074;28;20117;-82
2024/04/01 09:55:21;;;;;;;30.08;27.27;;;11.00;99.90;;;;;;4969293;28;20188;-82
2024/04/01 09:58:05;;;;;;;30.60;27.95;;;11.00;99.90;;;;;;4969811;28;20135;-82
2024/04/01 10:00:44;;;;;;;29.65;26.95;;;11.10;99.90;;;;;;5015634;28;20085;-82
2024/04/01 10:03:39;;;;;;;30.92;28.17;;;11.10;99.90;;;;;;4956367;28;20050;-81
2024/04/01 10:06:39;;;;;;;29.42;26.73;;;11.10;99.90;;;;;;5000028;28;20507;-83
2024/04/01 10:09:23;;;;;;;32.77;29.83;;;11.10;99.90;;;;;;4981897;28;20050;-82
2024/04/01 10:12:01;;;;;;;27.98;25.25;;;11.10;99.90;;;;;;4969506;28;20313;-82
2024/04/01 10:14:49;;;;;;;29.95;26.98;;;11.20;99.90;;;;;;4970748;28;20046;-83
2024/04/01 10:17:38;;;;;;;23.02;20.90;;;11.20;99.90;;;;;;4969083;28;20060;-83
2024/04/01 10:20:17;;;;;;;26.33;24.02;;;11.20;99.90;;;;;;4972133;28;20100;-83
2024/04/01 10:23:04;;;;;;;23.67;21.58;;;11.30;99.90;;;;;;4966047;28;20038;-84
2024/04/01 10:25:52;;;;;;;29.90;27.10;;;11.30;99.90;;;;;;4988491;28;20053;-84
2024/04/01 10:28:52;;;;;;;24.15;22.05;;;11.20;99.90;;;;;;4992955;28;20046;-84
2024/04/01 10:31:52;;;;;;;27.40;24.67;;;11.30;99.90;;;;;;5018401;28;20447;-84
2024/04/01 10:34:30;;;;;;;28.80;26.17;;;11.30;99.90;;;;;;4971836;28;20066;-85
2024/04/01 10:37:36;;;;;;;31.40;28.23;;;11.30;99.90;;;;;;4969568;28;20065;-84
2024/04/01 10:40:34;;;;;;;33.85;30.80;;;11.40;99.90;;;;;;4966576;28;20042;-84
2024/04/01 10:43:05;;;;;;;33.00;30.23;;;11.40;99.90;;;;;;4903547;28;20521;-85
2024/04/01 10:45:53;;;;;;;37.03;33.72;;;11.50;99.90;;;;;;4998263;28;20049;-85
2024/04/01 10:48:25;;;;;;;38.53;35.13;;;11.50;99.90;;;;;;4980408;28;20053;-83
2024/04/01 10:51:28;;;;;;;33.63;30.92;;;11.60;99.90;;;;;;4985878;28;20143;-84
2024/04/01 10:54:04;;;;;;;58.92;52.88;;;11.60;99.90;;;;;;4979047;28;20054;-83
2024/04/01 10:56:52;;;;;;;39.25;35.58;;;11.60;99.90;;;;;;4973195;28;20051;-83
2024/04/01 10:59:51;;;;;;;39.05;35.63;;;11.70;99.90;;;;;;4962758;28;20042;-83
2024/04/01 11:02:23;;;;;;;36.33;33.08;;;11.70;99.90;;;;;;5012102;28;20054;-84
2024/04/01 11:05:11;;;;;;;39.97;36.47;;;11.70;99.90;;;;;;4966562;28;20050;-84
2024/04/01 11:08:18;;;;;;;38.00;34.47;;;11.70;99.90;;;;;;4974798;28;20043;-84
2024/04/01 11:11:00;;;;;;;39.97;36.47;;;11.70;99.90;;;;;;4964374;28;20038;-84
2024/04/01 11:13:28;;;;;;;64.72;57.85;;;11.70;99.90;;;;;;4979717;28;20129;-84
2024/04/01 11:15:57;;;;;;;37.20;33.80;;;11.70;99.90;;;;;;4962395;28;20046;-83
2024/04/01 11:19:02;;;;;;;45.35;41.10;;;11.70;99.90;;;;;;4969260;28;20057;-83
2024/04/01 11:21:42;;;;;;;36.05;32.83;;;11.70;99.90;;;;;;4986392;28;20069;-84
2024/04/01 11:24:45;;;;;;;34.80;31.98;;;11.70;99.90;;;;;;4988078;28;20050;-84
2024/04/01 11:27:44;;;;;;;43.03;39.00;;;11.70;99.90;;;;;;4988042;28;20042;-84
2024/04/01 11:30:18;;;;;;;34.97;32.00;;;11.70;99.90;;;;;;5000759;28;20132;-84
2024/04/01 11:32:45;;;;;;;39.58;35.95;;;11.70;99.90;;;;;;4975078;28;20050;-83
2024/04/01 11:35:23;;;;;;;37.90;34.47;;;11.70;99.90;;;;;;5000351;28;20045;-83
2024/04/01 11:38:03;;;;;;;34.88;31.88;;;11.70;99.90;;;;;;4961817;28;20235;-83
2024/04/01 11:40:33;;;;;;;34.65;31.65;;;11.70;99.90;;;;;;4998721;28;21555;-84
2024/04/01 11:43:04;;;;;;;34.38;31.17;;;11.70;99.90;;;;;;4985327;28;20049;-84
2024/04/01 11:45:35;;;;;;;32.92;30.15;;;11.70;99.90;;;;;;4973235;28;20042;-82
2024/04/01 11:48:13;;;;;;;37.88;31.48;;;11.60;99.90;;;;;;4966796;28;20046;-82
2024/04/01 11:50:49;;;;;;;34.45;31.33;;;11.70;99.90;;;;;;4978078;28;20054;-83
2024/04/01 11:53:15;;;;;;;31.60;29.00;;;11.60;99.90;;;;;;4968083;28;20520;-83
2024/04/01 11:55:51;;;;;;;31.95;29.35;;;11.70;99.90;;;;;;4967143;28;20057;-83
2024/04/01 11:58:16;;;;;;;32.40;29.60;;;11.70;99.90;;;;;;5000498;28;20362;-84
2024/04/01 12:00:59;;;;;;;33.50;30.58;;;11.70;99.90;;;;;;5011370;28;20049;-83
2024/04/01 12:03:41;;;;;;;29.45;26.95;;;11.70;99.90;;;;;;4989763;28;20045;-83
2024/04/01 12:06:13;;;;;;;31.85;28.95;;;11.70;99.90;;;;;;4970850;28;20041;-83
2024/04/01 12:08:40;;;;;;;30.15;27.65;;;11.80;99.90;;;;;;5004785;28;20486;-84
2024/04/01 12:11:07;;;;;;;34.28;30.88;;;11.80;99.90;;;;;;5022015;28;20450;-83
2024/04/01 12:13:39;;;;;;;30.33;27.65;;;11.90;99.90;;;;;;4979800;28;20049;-83
2024/04/01 12:16:07;;;;;;;30.92;27.95;;;11.90;99.90;;;;;;4963766;28;20125;-84
2024/04/01 12:18:48;;;;;;;28.73;26.33;;;12.00;99.90;;;;;;4977998;28;20862;-82
2024/04/01 12:21:17;;;;;;;;;;;12.00;99.90;;;;;;4963360;28;20068;-82
2024/04/01 12:23:43;;;;;;;26.20;23.65;;;11.90;99.90;;;;;;4971176;28;20008;-81
2024/04/01 12:26:12;;;;;;;30.00;27.23;;;11.90;99.90;;;;;;4980828;28;20057;-81
2024/04/01 12:28:38;;;;;;;18.83;17.20;;;12.00;99.90;;;;;;5018042;28;20125;-81
2024/04/01 12:31:04;;;;;;;16.55;15.23;;;12.00;99.90;;;;;;4972313;28;20296;-81
2024/04/01 12:33:31;;;;;;;14.82;13.50;;;12.00;99.90;;;;;;4982327;28;20046;-82
2024/04/01 12:36:00;;;;;;;14.80;13.57;;;12.00;99.90;;;;;;4961806;28;20038;-81
2024/04/01 12:38:33;;;;;;;14.70;13.40;;;12.00;99.90;;;;;;4959217;28;20450;-80
2024/04/01 12:41:00;;;;;;;20.25;18.17;;;12.00;99.90;;;;;;4993910;28;20079;-81
2024/04/01 12:43:27;;;;;;;12.90;11.68;;;12.00;99.90;;;;;;4967609;28;20050;-82
2024/04/01 12:45:54;;;;;;;12.60;11.40;;;12.10;99.90;;;;;;4987816;28;20314;-80